sensor_id;sensor_type;location;lat;lon;timestamp;temperature;humidity
21950;DHT22;11139;51.284;7.226;2022-08-30T00:00:16;20.10;80.70
21950;DHT22;11139;51.284;7.226;2022-08-30T00:03:00;20.10;80.80
21950;DHT22;11139;51.284;7.226;2022-08-30T00:05:27;20.00;80.70
21950;DHT22;11139;51.284;7.226;2022-08-30T00:07:53;20.10;80.80
21950;DHT22;11139;51.284;7.226;2022-08-30T00:10:19;20.10;80.90
21950;DHT22;11139;51.284;7.226;2022-08-30T00:12:44;20.10;80.90
21950;DHT22;11139;51.284;7.226;2022-08-30T00:15:11;20.00;80.90
21950;DHT22;11139;51.284;7.226;2022-08-30T00:17:37;20.00;80.90
21950;DHT22;11139;51.284;7.226;2022-08-30T00:20:04;20.00;80.90
21950;DHT22;11139;51.284;7.226;2022-08-30T00:22:30;20.00;81.00
21950;DHT22;11139;51.284;7.226;2022-08-30T00:24:57;20.00;81.00
21950;DHT22;11139;51.284;7.226;2022-08-30T00:27:28;20.00;81.10
21950;DHT22;11139;51.284;7.226;2022-08-30T00:29:54;20.00;81.10
21950;DHT22;11139;51.284;7.226;2022-08-30T00:32:20;20.00;81.10
21950;DHT22;11139;51.284;7.226;2022-08-30T00:34:46;20.00;81.20
21950;DHT22;11139;51.284;7.226;2022-08-30T00:37:12;20.00;81.30
21950;DHT22;11139;51.284;7.226;2022-08-30T00:39:38;20.00;81.30
21950;DHT22;11139;51.284;7.226;2022-08-30T00:42:03;19.90;81.30
21950;DHT22;11139;51.284;7.226;2022-08-30T00:44:29;20.00;81.40
21950;DHT22;11139;51.284;7.226;2022-08-30T00:46:55;20.00;81.40
21950;DHT22;11139;51.284;7.226;2022-08-30T00:49:20;20.00;81.50
21950;DHT22;11139;51.284;7.226;2022-08-30T00:51:46;20.00;81.50
21950;DHT22;11139;51.284;7.226;2022-08-30T00:54:12;20.00;81.50
21950;DHT22;11139;51.284;7.226;2022-08-30T00:56:38;19.90;81.50
21950;DHT22;11139;51.284;7.226;2022-08-30T00:59:04;19.90;81.60
21950;DHT22;11139;51.284;7.226;2022-08-30T01:01:30;20.00;81.60
21950;DHT22;11139;51.284;7.226;2022-08-30T01:03:56;19.90;81.70
21950;DHT22;11139;51.284;7.226;2022-08-30T01:06:22;19.90;81.70
21950;DHT22;11139;51.284;7.226;2022-08-30T01:08:50;19.90;81.70
21950;DHT22;11139;51.284;7.226;2022-08-30T01:11:17;19.90;81.70
21950;DHT22;11139;51.284;7.226;2022-08-30T01:13:44;19.90;81.70
21950;DHT22;11139;51.284;7.226;2022-08-30T01:16:11;19.90;81.80
21950;DHT22;11139;51.284;7.226;2022-08-30T01:18:37;19.90;81.90
21950;DHT22;11139;51.284;7.226;2022-08-30T01:23:35;19.90;82.00
21950;DHT22;11139;51.284;7.226;2022-08-30T01:26:02;19.90;82.00
21950;DHT22;11139;51.284;7.226;2022-08-30T01:28:28;19.90;82.10
21950;DHT22;11139;51.284;7.226;2022-08-30T01:30:54;19.90;82.20
21950;DHT22;11139;51.284;7.226;2022-08-30T01:33:23;19.90;82.20
21950;DHT22;11139;51.284;7.226;2022-08-30T01:36:05;19.90;82.30
21950;DHT22;11139;51.284;7.226;2022-08-30T01:38:39;19.90;82.20
21950;DHT22;11139;51.284;7.226;2022-08-30T01:41:09;19.90;82.30
21950;DHT22;11139;51.284;7.226;2022-08-30T01:43:35;19.90;82.30
21950;DHT22;11139;51.284;7.226;2022-08-30T01:46:01;19.90;82.30
21950;DHT22;11139;51.284;7.226;2022-08-30T01:48:27;19.80;82.40
21950;DHT22;11139;51.284;7.226;2022-08-30T01:51:00;19.90;82.50
21950;DHT22;11139;51.284;7.226;2022-08-30T01:53:29;19.80;82.50
21950;DHT22;11139;51.284;7.226;2022-08-30T01:55:57;19.90;82.70
21950;DHT22;11139;51.284;7.226;2022-08-30T01:58:23;19.80;82.70
21950;DHT22;11139;51.284;7.226;2022-08-30T02:00:52;19.80;82.70
21950;DHT22;11139;51.284;7.226;2022-08-30T02:03:17;19.80;82.70
21950;DHT22;11139;51.284;7.226;2022-08-30T02:05:46;19.80;82.70
21950;DHT22;11139;51.284;7.226;2022-08-30T02:08:12;19.80;82.70
21950;DHT22;11139;51.284;7.226;2022-08-30T02:10:38;19.80;82.80
21950;DHT22;11139;51.284;7.226;2022-08-30T02:13:03;19.80;82.80
21950;DHT22;11139;51.284;7.226;2022-08-30T02:15:29;19.80;82.80
21950;DHT22;11139;51.284;7.226;2022-08-30T02:17:54;19.80;82.80
21950;DHT22;11139;51.284;7.226;2022-08-30T02:20:20;19.80;82.90
21950;DHT22;11139;51.284;7.226;2022-08-30T02:22:46;19.80;82.90
21950;DHT22;11139;51.284;7.226;2022-08-30T02:25:12;19.80;83.00
21950;DHT22;11139;51.284;7.226;2022-08-30T02:27:37;19.80;83.10
21950;DHT22;11139;51.284;7.226;2022-08-30T02:30:04;19.80;83.10
21950;DHT22;11139;51.284;7.226;2022-08-30T02:32:30;19.80;83.20
21950;DHT22;11139;51.284;7.226;2022-08-30T02:34:55;19.70;83.20
21950;DHT22;11139;51.284;7.226;2022-08-30T02:37:21;19.80;83.40
21950;DHT22;11139;51.284;7.226;2022-08-30T02:39:46;19.80;83.40
21950;DHT22;11139;51.284;7.226;2022-08-30T02:42:12;19.70;83.40
21950;DHT22;11139;51.284;7.226;2022-08-30T02:44:37;19.70;83.50
21950;DHT22;11139;51.284;7.226;2022-08-30T02:47:03;19.70;83.40
21950;DHT22;11139;51.284;7.226;2022-08-30T02:49:28;19.70;83.50
21950;DHT22;11139;51.284;7.226;2022-08-30T02:51:54;19.70;83.50
21950;DHT22;11139;51.284;7.226;2022-08-30T02:54:19;19.70;83.50
21950;DHT22;11139;51.284;7.226;2022-08-30T02:56:45;19.70;83.70
21950;DHT22;11139;51.284;7.226;2022-08-30T02:59:12;19.70;83.70
21950;DHT22;11139;51.284;7.226;2022-08-30T03:01:38;19.70;83.90
21950;DHT22;11139;51.284;7.226;2022-08-30T03:04:04;19.70;83.90
21950;DHT22;11139;51.284;7.226;2022-08-30T03:06:30;19.70;83.90
21950;DHT22;11139;51.284;7.226;2022-08-30T03:08:55;19.70;84.00
21950;DHT22;11139;51.284;7.226;2022-08-30T03:11:21;19.70;84.10
21950;DHT22;11139;51.284;7.226;2022-08-30T03:13:47;19.70;84.20
21950;DHT22;11139;51.284;7.226;2022-08-30T03:16:12;19.70;84.20
21950;DHT22;11139;51.284;7.226;2022-08-30T03:18:38;19.70;84.20
21950;DHT22;11139;51.284;7.226;2022-08-30T03:21:08;19.70;84.20
21950;DHT22;11139;51.284;7.226;2022-08-30T03:23:33;19.70;84.20
21950;DHT22;11139;51.284;7.226;2022-08-30T03:25:59;19.70;84.40
21950;DHT22;11139;51.284;7.226;2022-08-30T03:28:25;19.70;84.40
21950;DHT22;11139;51.284;7.226;2022-08-30T03:30:50;19.70;84.40
21950;DHT22;11139;51.284;7.226;2022-08-30T03:33:16;19.60;84.40
21950;DHT22;11139;51.284;7.226;2022-08-30T03:35:42;19.60;84.50
21950;DHT22;11139;51.284;7.226;2022-08-30T03:38:07;19.60;84.50
21950;DHT22;11139;51.284;7.226;2022-08-30T03:40:33;19.60;84.50
21950;DHT22;11139;51.284;7.226;2022-08-30T03:43:00;19.60;85.40
21950;DHT22;11139;51.284;7.226;2022-08-30T03:45:25;19.60;84.60
21950;DHT22;11139;51.284;7.226;2022-08-30T03:47:51;19.60;84.60
21950;DHT22;11139;51.284;7.226;2022-08-30T03:50:16;19.60;84.60
21950;DHT22;11139;51.284;7.226;2022-08-30T03:52:42;19.60;84.70
21950;DHT22;11139;51.284;7.226;2022-08-30T03:55:09;19.60;84.80
21950;DHT22;11139;51.284;7.226;2022-08-30T03:57:35;19.60;84.80
21950;DHT22;11139;51.284;7.226;2022-08-30T04:00:02;19.60;84.90
21950;DHT22;11139;51.284;7.226;2022-08-30T04:02:27;19.50;84.80
21950;DHT22;11139;51.284;7.226;2022-08-30T04:04:53;19.60;84.80
21950;DHT22;11139;51.284;7.226;2022-08-30T04:07:18;19.50;85.00
21950;DHT22;11139;51.284;7.226;2022-08-30T04:09:44;19.50;85.00
21950;DHT22;11139;51.284;7.226;2022-08-30T04:12:11;19.60;85.00
21950;DHT22;11139;51.284;7.226;2022-08-30T04:14:37;19.50;85.00
21950;DHT22;11139;51.284;7.226;2022-08-30T04:17:02;19.50;85.00
21950;DHT22;11139;51.284;7.226;2022-08-30T04:19:28;19.50;85.10
21950;DHT22;11139;51.284;7.226;2022-08-30T04:21:54;19.50;85.20
21950;DHT22;11139;51.284;7.226;2022-08-30T04:24:21;19.50;85.20
21950;DHT22;11139;51.284;7.226;2022-08-30T04:26:47;19.50;85.20
21950;DHT22;11139;51.284;7.226;2022-08-30T04:29:12;19.50;85.20
21950;DHT22;11139;51.284;7.226;2022-08-30T04:31:41;19.50;85.10
21950;DHT22;11139;51.284;7.226;2022-08-30T04:34:07;19.50;85.10
21950;DHT22;11139;51.284;7.226;2022-08-30T04:36:33;19.50;85.20
21950;DHT22;11139;51.284;7.226;2022-08-30T04:38:58;19.50;85.30
21950;DHT22;11139;51.284;7.226;2022-08-30T04:41:24;19.50;85.30
21950;DHT22;11139;51.284;7.226;2022-08-30T04:43:49;19.50;85.20
21950;DHT22;11139;51.284;7.226;2022-08-30T04:46:15;19.40;85.20
21950;DHT22;11139;51.284;7.226;2022-08-30T04:48:42;19.50;85.20
21950;DHT22;11139;51.284;7.226;2022-08-30T04:51:09;19.40;85.30
21950;DHT22;11139;51.284;7.226;2022-08-30T04:53:34;19.50;85.40
21950;DHT22;11139;51.284;7.226;2022-08-30T04:56:00;19.40;85.50
21950;DHT22;11139;51.284;7.226;2022-08-30T04:58:26;19.40;85.40
21950;DHT22;11139;51.284;7.226;2022-08-30T05:00:51;19.40;85.40
21950;DHT22;11139;51.284;7.226;2022-08-30T05:03:17;19.50;85.50
21950;DHT22;11139;51.284;7.226;2022-08-30T05:05:48;19.40;85.50
21950;DHT22;11139;51.284;7.226;2022-08-30T05:08:14;19.40;85.50
21950;DHT22;11139;51.284;7.226;2022-08-30T05:10:43;19.40;85.40
21950;DHT22;11139;51.284;7.226;2022-08-30T05:13:08;19.40;85.40
21950;DHT22;11139;51.284;7.226;2022-08-30T05:15:34;19.40;85.40
21950;DHT22;11139;51.284;7.226;2022-08-30T05:18:01;19.40;85.40
21950;DHT22;11139;51.284;7.226;2022-08-30T05:20:26;19.40;85.50
21950;DHT22;11139;51.284;7.226;2022-08-30T05:22:52;19.40;85.50
21950;DHT22;11139;51.284;7.226;2022-08-30T05:25:18;19.40;85.50
21950;DHT22;11139;51.284;7.226;2022-08-30T05:27:44;19.40;85.50
21950;DHT22;11139;51.284;7.226;2022-08-30T05:30:09;19.40;85.50
21950;DHT22;11139;51.284;7.226;2022-08-30T05:32:35;19.40;85.60
21950;DHT22;11139;51.284;7.226;2022-08-30T05:35:01;19.40;85.60
21950;DHT22;11139;51.284;7.226;2022-08-30T05:37:28;19.40;85.60
21950;DHT22;11139;51.284;7.226;2022-08-30T05:39:54;19.40;85.70
21950;DHT22;11139;51.284;7.226;2022-08-30T05:42:20;19.30;85.70
21950;DHT22;11139;51.284;7.226;2022-08-30T05:44:49;19.40;85.80
21950;DHT22;11139;51.284;7.226;2022-08-30T05:47:15;19.30;85.80
21950;DHT22;11139;51.284;7.226;2022-08-30T05:49:40;19.40;86.00
21950;DHT22;11139;51.284;7.226;2022-08-30T05:52:06;19.30;86.00
21950;DHT22;11139;51.284;7.226;2022-08-30T05:54:31;19.30;86.10
21950;DHT22;11139;51.284;7.226;2022-08-30T05:56:57;19.30;86.40
21950;DHT22;11139;51.284;7.226;2022-08-30T05:59:22;19.30;86.40
21950;DHT22;11139;51.284;7.226;2022-08-30T06:01:48;19.30;86.30
21950;DHT22;11139;51.284;7.226;2022-08-30T06:04:14;19.30;86.30
21950;DHT22;11139;51.284;7.226;2022-08-30T06:06:40;19.30;86.40
21950;DHT22;11139;51.284;7.226;2022-08-30T06:09:06;19.30;86.40
21950;DHT22;11139;51.284;7.226;2022-08-30T06:11:32;19.30;86.40
21950;DHT22;11139;51.284;7.226;2022-08-30T06:13:58;19.30;86.40
21950;DHT22;11139;51.284;7.226;2022-08-30T06:16:24;19.30;86.40
21950;DHT22;11139;51.284;7.226;2022-08-30T06:18:50;19.30;86.30
21950;DHT22;11139;51.284;7.226;2022-08-30T06:21:16;19.30;86.20
21950;DHT22;11139;51.284;7.226;2022-08-30T06:23:42;19.30;86.30
21950;DHT22;11139;51.284;7.226;2022-08-30T06:26:08;19.30;86.30
21950;DHT22;11139;51.284;7.226;2022-08-30T06:28:34;19.30;86.40
21950;DHT22;11139;51.284;7.226;2022-08-30T06:31:00;19.20;86.40
21950;DHT22;11139;51.284;7.226;2022-08-30T06:33:25;19.20;86.30
21950;DHT22;11139;51.284;7.226;2022-08-30T06:35:51;19.20;86.30
21950;DHT22;11139;51.284;7.226;2022-08-30T06:38:16;19.30;86.40
21950;DHT22;11139;51.284;7.226;2022-08-30T06:40:42;19.30;86.50
21950;DHT22;11139;51.284;7.226;2022-08-30T06:43:07;19.30;86.60
21950;DHT22;11139;51.284;7.226;2022-08-30T06:45:33;19.20;86.90
21950;DHT22;11139;51.284;7.226;2022-08-30T06:47:59;19.20;86.90
21950;DHT22;11139;51.284;7.226;2022-08-30T06:50:25;19.20;89.60
21950;DHT22;11139;51.284;7.226;2022-08-30T06:52:50;19.20;88.80
21950;DHT22;11139;51.284;7.226;2022-08-30T06:55:16;19.20;88.40
21950;DHT22;11139;51.284;7.226;2022-08-30T06:57:42;19.20;88.50
21950;DHT22;11139;51.284;7.226;2022-08-30T07:00:08;19.10;88.20
21950;DHT22;11139;51.284;7.226;2022-08-30T07:02:36;19.20;88.30
21950;DHT22;11139;51.284;7.226;2022-08-30T07:05:02;19.20;88.40
21950;DHT22;11139;51.284;7.226;2022-08-30T07:07:28;19.10;88.30
21950;DHT22;11139;51.284;7.226;2022-08-30T07:09:53;19.20;88.30
21950;DHT22;11139;51.284;7.226;2022-08-30T07:12:19;19.20;88.40
21950;DHT22;11139;51.284;7.226;2022-08-30T07:14:44;19.20;88.40
21950;DHT22;11139;51.284;7.226;2022-08-30T07:17:10;19.20;88.40
21950;DHT22;11139;51.284;7.226;2022-08-30T07:19:54;19.20;88.60
21950;DHT22;11139;51.284;7.226;2022-08-30T07:22:20;19.20;88.60
21950;DHT22;11139;51.284;7.226;2022-08-30T07:24:46;19.20;88.60
21950;DHT22;11139;51.284;7.226;2022-08-30T07:27:12;19.20;88.70
21950;DHT22;11139;51.284;7.226;2022-08-30T07:29:37;19.10;88.70
21950;DHT22;11139;51.284;7.226;2022-08-30T07:32:03;19.10;88.60
21950;DHT22;11139;51.284;7.226;2022-08-30T07:34:32;19.20;88.90
21950;DHT22;11139;51.284;7.226;2022-08-30T07:36:57;19.20;88.80
21950;DHT22;11139;51.284;7.226;2022-08-30T07:39:29;19.20;88.70
21950;DHT22;11139;51.284;7.226;2022-08-30T07:41:54;19.20;88.70
21950;DHT22;11139;51.284;7.226;2022-08-30T07:44:20;19.20;88.70
21950;DHT22;11139;51.284;7.226;2022-08-30T07:46:45;19.20;88.60
21950;DHT22;11139;51.284;7.226;2022-08-30T07:49:14;19.20;88.60
21950;DHT22;11139;51.284;7.226;2022-08-30T07:51:40;19.20;88.80
21950;DHT22;11139;51.284;7.226;2022-08-30T07:54:05;19.20;88.80
21950;DHT22;11139;51.284;7.226;2022-08-30T07:56:37;19.20;88.90
21950;DHT22;11139;51.284;7.226;2022-08-30T07:59:10;19.10;88.80
21950;DHT22;11139;51.284;7.226;2022-08-30T08:01:35;19.20;88.90
21950;DHT22;11139;51.284;7.226;2022-08-30T08:04:04;19.10;88.90
21950;DHT22;11139;51.284;7.226;2022-08-30T08:06:29;19.20;89.10
21950;DHT22;11139;51.284;7.226;2022-08-30T08:09:01;19.20;90.00
21950;DHT22;11139;51.284;7.226;2022-08-30T08:11:29;19.20;89.20
21950;DHT22;11139;51.284;7.226;2022-08-30T08:13:55;19.10;89.20
21950;DHT22;11139;51.284;7.226;2022-08-30T08:16:25;19.20;89.30
21950;DHT22;11139;51.284;7.226;2022-08-30T08:18:51;19.20;89.50
21950;DHT22;11139;51.284;7.226;2022-08-30T08:21:20;19.20;89.50
21950;DHT22;11139;51.284;7.226;2022-08-30T08:26:17;19.20;89.50
21950;DHT22;11139;51.284;7.226;2022-08-30T08:28:43;19.20;89.60
21950;DHT22;11139;51.284;7.226;2022-08-30T08:31:17;19.20;89.70
21950;DHT22;11139;51.284;7.226;2022-08-30T08:33:43;19.20;90.00
21950;DHT22;11139;51.284;7.226;2022-08-30T08:36:09;19.20;90.00
21950;DHT22;11139;51.284;7.226;2022-08-30T08:38:34;19.20;89.80
21950;DHT22;11139;51.284;7.226;2022-08-30T08:41:24;19.10;89.60
21950;DHT22;11139;51.284;7.226;2022-08-30T08:43:49;19.10;89.70
21950;DHT22;11139;51.284;7.226;2022-08-30T08:46:19;19.20;89.80
21950;DHT22;11139;51.284;7.226;2022-08-30T08:48:50;19.10;89.80
21950;DHT22;11139;51.284;7.226;2022-08-30T08:51:19;19.10;90.00
21950;DHT22;11139;51.284;7.226;2022-08-30T08:54:09;19.20;90.00
21950;DHT22;11139;51.284;7.226;2022-08-30T08:56:35;19.20;90.10
21950;DHT22;11139;51.284;7.226;2022-08-30T08:59:02;19.10;90.00
21950;DHT22;11139;51.284;7.226;2022-08-30T09:01:29;19.20;90.00
21950;DHT22;11139;51.284;7.226;2022-08-30T09:03:55;19.20;90.00
21950;DHT22;11139;51.284;7.226;2022-08-30T09:08:49;19.10;90.00
21950;DHT22;11139;51.284;7.226;2022-08-30T09:11:19;19.20;89.60
21950;DHT22;11139;51.284;7.226;2022-08-30T09:13:45;19.20;89.90
21950;DHT22;11139;51.284;7.226;2022-08-30T09:16:11;19.20;90.10
21950;DHT22;11139;51.284;7.226;2022-08-30T09:18:56;19.20;90.10
21950;DHT22;11139;51.284;7.226;2022-08-30T09:21:23;19.20;90.00
21950;DHT22;11139;51.284;7.226;2022-08-30T09:23:50;19.20;90.10
21950;DHT22;11139;51.284;7.226;2022-08-30T09:26:27;19.20;90.00
21950;DHT22;11139;51.284;7.226;2022-08-30T09:28:52;19.20;90.00
21950;DHT22;11139;51.284;7.226;2022-08-30T09:31:22;19.20;89.90
21950;DHT22;11139;51.284;7.226;2022-08-30T09:36:29;19.20;89.80
21950;DHT22;11139;51.284;7.226;2022-08-30T09:39:06;19.20;90.00
21950;DHT22;11139;51.284;7.226;2022-08-30T09:41:39;19.20;89.80
21950;DHT22;11139;51.284;7.226;2022-08-30T09:46:46;19.20;90.20
21950;DHT22;11139;51.284;7.226;2022-08-30T09:49:53;19.20;89.70
21950;DHT22;11139;51.284;7.226;2022-08-30T09:52:17;19.30;89.80
21950;DHT22;11139;51.284;7.226;2022-08-30T09:57:38;19.20;89.60
21950;DHT22;11139;51.284;7.226;2022-08-30T10:00:16;19.20;89.70
21950;DHT22;11139;51.284;7.226;2022-08-30T10:05:44;19.30;90.00
21950;DHT22;11139;51.284;7.226;2022-08-30T10:08:24;19.30;89.80
21950;DHT22;11139;51.284;7.226;2022-08-30T10:10:57;19.30;89.90
21950;DHT22;11139;51.284;7.226;2022-08-30T10:15:50;19.30;90.00
21950;DHT22;11139;51.284;7.226;2022-08-30T10:18:23;19.30;90.00
21950;DHT22;11139;51.284;7.226;2022-08-30T10:23:17;19.30;90.20
21950;DHT22;11139;51.284;7.226;2022-08-30T10:28:40;19.30;90.10
21950;DHT22;11139;51.284;7.226;2022-08-30T10:31:08;19.30;90.00
21950;DHT22;11139;51.284;7.226;2022-08-30T10:33:37;19.30;90.10
21950;DHT22;11139;51.284;7.226;2022-08-30T10:36:05;19.30;90.10
21950;DHT22;11139;51.284;7.226;2022-08-30T10:41:02;19.40;90.10
21950;DHT22;11139;51.284;7.226;2022-08-30T10:46:17;19.40;90.10
21950;DHT22;11139;51.284;7.226;2022-08-30T10:48:43;19.30;90.00
21950;DHT22;11139;51.284;7.226;2022-08-30T10:51:13;19.40;90.10
21950;DHT22;11139;51.284;7.226;2022-08-30T10:53:40;19.40;90.10
21950;DHT22;11139;51.284;7.226;2022-08-30T10:56:08;19.30;90.30
21950;DHT22;11139;51.284;7.226;2022-08-30T10:58:38;19.40;90.20
21950;DHT22;11139;51.284;7.226;2022-08-30T11:01:14;19.40;90.20
21950;DHT22;11139;51.284;7.226;2022-08-30T11:14:40;19.40;90.30
21950;DHT22;11139;51.284;7.226;2022-08-30T11:17:20;19.40;90.30
21950;DHT22;11139;51.284;7.226;2022-08-30T11:19:47;19.40;90.20
21950;DHT22;11139;51.284;7.226;2022-08-30T11:22:14;19.50;90.30
21950;DHT22;11139;51.284;7.226;2022-08-30T11:35:37;19.50;90.20
21950;DHT22;11139;51.284;7.226;2022-08-30T11:51:11;19.50;90.20
21950;DHT22;11139;51.284;7.226;2022-08-30T12:01:20;19.60;90.10
21950;DHT22;11139;51.284;7.226;2022-08-30T12:09:07;19.60;90.10
21950;DHT22;11139;51.284;7.226;2022-08-30T12:13:59;19.70;90.00
21950;DHT22;11139;51.284;7.226;2022-08-30T12:16:36;19.60;89.90
21950;DHT22;11139;51.284;7.226;2022-08-30T12:19:23;19.60;89.90
21950;DHT22;11139;51.284;7.226;2022-08-30T12:21:58;19.60;89.90
21950;DHT22;11139;51.284;7.226;2022-08-30T12:24:25;19.70;89.90
21950;DHT22;11139;51.284;7.226;2022-08-30T12:26:51;19.60;89.80
21950;DHT22;11139;51.284;7.226;2022-08-30T12:34:25;19.60;89.80
21950;DHT22;11139;51.284;7.226;2022-08-30T12:36:56;19.70;89.80
21950;DHT22;11139;51.284;7.226;2022-08-30T12:39:27;19.60;89.70
21950;DHT22;11139;51.284;7.226;2022-08-30T12:41:53;19.70;89.70
21950;DHT22;11139;51.284;7.226;2022-08-30T12:44:20;19.70;89.70
21950;DHT22;11139;51.284;7.226;2022-08-30T12:46:47;19.70;89.50
21950;DHT22;11139;51.284;7.226;2022-08-30T12:49:14;19.70;89.50
21950;DHT22;11139;51.284;7.226;2022-08-30T12:51:41;19.70;89.40
21950;DHT22;11139;51.284;7.226;2022-08-30T12:56:58;19.70;89.40
21950;DHT22;11139;51.284;7.226;2022-08-30T12:59:44;19.70;89.30
21950;DHT22;11139;51.284;7.226;2022-08-30T13:04:40;19.70;89.20
21950;DHT22;11139;51.284;7.226;2022-08-30T13:07:05;19.70;89.20
21950;DHT22;11139;51.284;7.226;2022-08-30T13:09:32;19.80;89.20
21950;DHT22;11139;51.284;7.226;2022-08-30T13:12:02;19.80;89.10
21950;DHT22;11139;51.284;7.226;2022-08-30T13:14:30;19.80;89.00
21950;DHT22;11139;51.284;7.226;2022-08-30T13:19:42;19.80;89.10
21950;DHT22;11139;51.284;7.226;2022-08-30T13:24:52;19.80;89.20
21950;DHT22;11139;51.284;7.226;2022-08-30T13:27:18;19.80;89.20
21950;DHT22;11139;51.284;7.226;2022-08-30T13:29:43;19.80;89.20
21950;DHT22;11139;51.284;7.226;2022-08-30T13:32:09;19.80;89.20
21950;DHT22;11139;51.284;7.226;2022-08-30T13:34:34;19.80;89.10
21950;DHT22;11139;51.284;7.226;2022-08-30T13:37:00;19.80;89.20
21950;DHT22;11139;51.284;7.226;2022-08-30T13:39:26;19.90;89.20
21950;DHT22;11139;51.284;7.226;2022-08-30T13:41:52;19.90;89.20
21950;DHT22;11139;51.284;7.226;2022-08-30T13:44:18;19.90;89.10
21950;DHT22;11139;51.284;7.226;2022-08-30T13:46:44;19.90;89.00
21950;DHT22;11139;51.284;7.226;2022-08-30T13:49:18;19.90;89.10
21950;DHT22;11139;51.284;7.226;2022-08-30T13:51:44;19.90;89.00
21950;DHT22;11139;51.284;7.226;2022-08-30T13:54:10;19.90;89.00
21950;DHT22;11139;51.284;7.226;2022-08-30T13:56:35;19.90;88.90
21950;DHT22;11139;51.284;7.226;2022-08-30T13:59:01;19.90;89.00
21950;DHT22;11139;51.284;7.226;2022-08-30T14:01:29;19.90;89.00
21950;DHT22;11139;51.284;7.226;2022-08-30T14:03:55;19.90;89.00
21950;DHT22;11139;51.284;7.226;2022-08-30T14:06:22;19.90;88.90
21950;DHT22;11139;51.284;7.226;2022-08-30T14:08:47;20.00;88.90
21950;DHT22;11139;51.284;7.226;2022-08-30T14:11:14;20.00;88.70
21950;DHT22;11139;51.284;7.226;2022-08-30T14:13:41;20.00;88.60
21950;DHT22;11139;51.284;7.226;2022-08-30T14:16:07;20.10;88.40
21950;DHT22;11139;51.284;7.226;2022-08-30T14:18:33;20.10;88.50
21950;DHT22;11139;51.284;7.226;2022-08-30T14:20:59;20.10;88.50
21950;DHT22;11139;51.284;7.226;2022-08-30T14:23:25;20.10;88.60
21950;DHT22;11139;51.284;7.226;2022-08-30T14:25:53;20.10;88.60
21950;DHT22;11139;51.284;7.226;2022-08-30T14:28:19;20.10;88.60
21950;DHT22;11139;51.284;7.226;2022-08-30T14:30:45;20.10;88.40
21950;DHT22;11139;51.284;7.226;2022-08-30T14:33:10;20.10;88.30
21950;DHT22;11139;51.284;7.226;2022-08-30T14:35:36;20.10;88.40
21950;DHT22;11139;51.284;7.226;2022-08-30T14:38:01;20.10;88.40
21950;DHT22;11139;51.284;7.226;2022-08-30T14:40:27;20.10;88.40
21950;DHT22;11139;51.284;7.226;2022-08-30T14:42:53;20.10;88.30
21950;DHT22;11139;51.284;7.226;2022-08-30T14:45:18;20.10;88.40
21950;DHT22;11139;51.284;7.226;2022-08-30T14:47:44;20.10;88.50
21950;DHT22;11139;51.284;7.226;2022-08-30T14:50:09;20.10;88.30
21950;DHT22;11139;51.284;7.226;2022-08-30T14:52:35;20.20;88.20
21950;DHT22;11139;51.284;7.226;2022-08-30T14:55:01;20.20;88.20
21950;DHT22;11139;51.284;7.226;2022-08-30T14:57:27;20.20;88.20
21950;DHT22;11139;51.284;7.226;2022-08-30T14:59:52;20.20;88.20
21950;DHT22;11139;51.284;7.226;2022-08-30T15:02:18;20.20;88.00
21950;DHT22;11139;51.284;7.226;2022-08-30T15:04:43;20.20;88.00
21950;DHT22;11139;51.284;7.226;2022-08-30T15:07:09;20.20;88.10
21950;DHT22;11139;51.284;7.226;2022-08-30T15:09:35;20.20;88.10
21950;DHT22;11139;51.284;7.226;2022-08-30T15:12:01;20.20;87.90
21950;DHT22;11139;51.284;7.226;2022-08-30T15:14:28;20.20;87.90
21950;DHT22;11139;51.284;7.226;2022-08-30T15:16:54;20.20;87.70
21950;DHT22;11139;51.284;7.226;2022-08-30T15:19:20;20.30;87.70
21950;DHT22;11139;51.284;7.226;2022-08-30T15:21:46;20.30;87.70
21950;DHT22;11139;51.284;7.226;2022-08-30T15:24:13;20.30;87.70
21950;DHT22;11139;51.284;7.226;2022-08-30T15:26:39;20.30;87.70
21950;DHT22;11139;51.284;7.226;2022-08-30T15:29:08;20.30;87.70
21950;DHT22;11139;51.284;7.226;2022-08-30T15:31:34;20.30;87.60
21950;DHT22;11139;51.284;7.226;2022-08-30T15:34:00;20.30;87.40
21950;DHT22;11139;51.284;7.226;2022-08-30T15:36:26;20.40;87.50
21950;DHT22;11139;51.284;7.226;2022-08-30T15:38:52;20.40;87.40
21950;DHT22;11139;51.284;7.226;2022-08-30T15:41:21;20.40;87.20
21950;DHT22;11139;51.284;7.226;2022-08-30T15:43:47;20.40;87.10
21950;DHT22;11139;51.284;7.226;2022-08-30T15:48:38;20.40;86.80
21950;DHT22;11139;51.284;7.226;2022-08-30T15:51:03;20.50;86.70
21950;DHT22;11139;51.284;7.226;2022-08-30T15:53:32;20.50;86.60
21950;DHT22;11139;51.284;7.226;2022-08-30T15:55:57;20.40;86.80
21950;DHT22;11139;51.284;7.226;2022-08-30T15:58:23;20.50;87.00
21950;DHT22;11139;51.284;7.226;2022-08-30T16:00:48;20.40;87.00
21950;DHT22;11139;51.284;7.226;2022-08-30T16:03:14;20.40;87.10
21950;DHT22;11139;51.284;7.226;2022-08-30T16:05:39;20.40;86.50
21950;DHT22;11139;51.284;7.226;2022-08-30T16:08:05;20.50;86.30
21950;DHT22;11139;51.284;7.226;2022-08-30T16:10:30;20.60;86.30
21950;DHT22;11139;51.284;7.226;2022-08-30T16:12:56;20.60;86.30
21950;DHT22;11139;51.284;7.226;2022-08-30T16:15:24;20.60;86.40
21950;DHT22;11139;51.284;7.226;2022-08-30T16:17:50;20.60;86.60
21950;DHT22;11139;51.284;7.226;2022-08-30T16:20:15;20.60;86.90
21950;DHT22;11139;51.284;7.226;2022-08-30T16:22:41;20.50;86.90
21950;DHT22;11139;51.284;7.226;2022-08-30T16:25:07;20.60;86.80
21950;DHT22;11139;51.284;7.226;2022-08-30T16:27:32;20.60;86.80
21950;DHT22;11139;51.284;7.226;2022-08-30T16:29:58;20.50;86.80
21950;DHT22;11139;51.284;7.226;2022-08-30T16:32:24;20.60;86.00
21950;DHT22;11139;51.284;7.226;2022-08-30T16:34:49;20.60;86.00
21950;DHT22;11139;51.284;7.226;2022-08-30T16:37:15;20.60;85.60
21950;DHT22;11139;51.284;7.226;2022-08-30T16:39:40;20.70;85.40
21950;DHT22;11139;51.284;7.226;2022-08-30T16:42:06;20.70;85.10
21950;DHT22;11139;51.284;7.226;2022-08-30T16:44:32;20.70;85.10
21950;DHT22;11139;51.284;7.226;2022-08-30T16:46:58;20.70;84.80
21950;DHT22;11139;51.284;7.226;2022-08-30T16:49:23;20.80;85.00
21950;DHT22;11139;51.284;7.226;2022-08-30T16:51:49;20.80;84.50
21950;DHT22;11139;51.284;7.226;2022-08-30T16:54:15;20.80;84.50
21950;DHT22;11139;51.284;7.226;2022-08-30T16:56:42;20.80;84.70
21950;DHT22;11139;51.284;7.226;2022-08-30T16:59:10;21.00;82.70
21950;DHT22;11139;51.284;7.226;2022-08-30T17:01:37;21.20;82.40
21950;DHT22;11139;51.284;7.226;2022-08-30T17:04:03;21.10;82.50
21950;DHT22;11139;51.284;7.226;2022-08-30T17:06:29;21.10;82.90
21950;DHT22;11139;51.284;7.226;2022-08-30T17:08:55;21.10;82.90